Celtic Sea — D5HH9 — position and weather

sailwx.info

Track history (hours):
 
Tides and Currents Weather Stations Pressure Air Temp Water Temp Dewpoint Dewpoint Depression Visibility Wind Speed Wind Dir Waves Ship Positions

Celtic Sea

Last reported at 2018-May-27 12:03 UTC. Time now 2018-Jun-21 02:49 UTC.
Position N 19°06' E 072°32'.
Warning: this ship's position is 24 days out of date.

Length 239 m; draft 12.5 m.

Type: Tanker. MMSI: 636016693.

Date/timePositionNaut miles runAvg speedWind from/ knotsBaromVisibWave heightAir tempDewpointWater temp
2018-May-27 12:03N 19°06' E 072°32'0 0.0
2018-May-26 12:15N 19°06' E 072°32'0 0.1
2018-May-26 11:09N 19°06' E 072°32'0 0.0
2018-May-26 09:33N 19°06' E 072°32'135 7.3
2018-May-25 15:03N 16°51' E 072°38'310.5
2018-May-25 14:49N 16°49' E 072°38'15511.9
2018-May-25 01:48N 14°15' E 072°57'411.9
2018-May-25 01:30N 14°12' E 072°57'  
2018-May-17 23:53N 01°23' E 103°15'714.2
2018-May-17 23:24N 01°18' E 103°20'614.5
2018-May-17 22:57N 01°15' E 103°25'713.8
2018-May-17 22:26N 01°12' E 103°32'511.3
2018-May-17 22:00N 01°11' E 103°37'511.0
2018-May-17 21:30N 01°10' E 103°42'4 7.5
2018-May-17 20:57N 01°10' E 103°46'3 7.2
2018-May-17 20:30N 01°11' E 103°49'4 7.0
2018-May-17 20:00N 01°12' E 103°52'4 7.9
2018-May-17 19:30N 01°14' E 103°56'5 8.7
2018-May-17 18:59N 01°15' E 103°60'4 8.3
2018-May-17 18:28N 01°16' E 104°04'510.0
2018-May-17 17:59N 01°17' E 104°09'5 9.9
2018-May-17 17:30N 01°17' E 104°14'5 9.4
2018-May-17 16:57N 01°19' E 104°19'511.0
2018-May-17 16:27N 01°22' E 104°23'612.3
2018-May-17 15:59N 01°26' E 104°27'  
Track history (hours):
 
Tides and Currents Weather Stations Pressure Air Temp Water Temp Dewpoint Dewpoint Depression Visibility Wind Speed Wind Dir Waves Ship Positions

Celtic Sea

Last reported at 2018-May-27 12:03 UTC. Time now 2018-Jun-21 02:49 UTC.
Position N 19°06' E 072°32'.
Warning: this ship's position is 24 days out of date.

Length 239 m; draft 12.5 m.

Type: Tanker. MMSI: 636016693.

Date/timePositionNaut miles runAvg speedWind from/ knotsBaromVisibWave heightAir tempDewpointWater temp
2018-May-27 12:03N 19°06' E 072°32'0 0.0
2018-May-26 12:15N 19°06' E 072°32'0 0.1
2018-May-26 11:09N 19°06' E 072°32'0 0.0
2018-May-26 09:33N 19°06' E 072°32'135 7.3
2018-May-25 15:03N 16°51' E 072°38'310.5
2018-May-25 14:49N 16°49' E 072°38'15511.9
2018-May-25 01:48N 14°15' E 072°57'411.9
2018-May-25 01:30N 14°12' E 072°57'  
2018-May-17 23:53N 01°23' E 103°15'714.2
2018-May-17 23:24N 01°18' E 103°20'614.5
2018-May-17 22:57N 01°15' E 103°25'713.8
2018-May-17 22:26N 01°12' E 103°32'511.3
2018-May-17 22:00N 01°11' E 103°37'511.0
2018-May-17 21:30N 01°10' E 103°42'4 7.5
2018-May-17 20:57N 01°10' E 103°46'3 7.2
2018-May-17 20:30N 01°11' E 103°49'4 7.0
2018-May-17 20:00N 01°12' E 103°52'4 7.9
2018-May-17 19:30N 01°14' E 103°56'5 8.7
2018-May-17 18:59N 01°15' E 103°60'4 8.3
2018-May-17 18:28N 01°16' E 104°04'510.0
2018-May-17 17:59N 01°17' E 104°09'5 9.9
2018-May-17 17:30N 01°17' E 104°14'5 9.4
2018-May-17 16:57N 01°19' E 104°19'511.0
2018-May-17 16:27N 01°22' E 104°23'612.3
2018-May-17 15:59N 01°26' E 104°27'  

Dump ship's entire track history